createdAt,value
2023-03-27T00:00:57.341Z,1.72
2023-03-27T00:01:57.269Z,1.72
2023-03-27T00:02:57.332Z,1.75
2023-03-27T00:04:57.306Z,1.71
2023-03-27T00:11:57.342Z,1.73
2023-03-27T00:12:57.374Z,1.75
2023-03-27T00:13:57.368Z,1.77
2023-03-27T00:14:57.408Z,1.74
2023-03-27T00:15:57.414Z,1.76
2023-03-27T00:16:57.547Z,1.72
2023-03-27T00:17:57.543Z,1.68
2023-03-27T00:18:57.536Z,1.66
2023-03-27T00:19:57.557Z,1.65
2023-03-27T00:20:57.720Z,1.64
2023-03-27T00:21:57.599Z,1.63
2023-03-27T00:22:57.657Z,1.60
2023-03-27T00:23:57.684Z,1.61
2023-03-27T00:24:57.683Z,1.62
2023-03-27T00:25:57.725Z,1.65
2023-03-27T00:26:57.741Z,1.65
2023-03-27T00:27:57.781Z,1.65
2023-03-27T00:28:57.812Z,1.62
2023-03-27T00:29:57.863Z,1.58
2023-03-27T00:30:58.081Z,1.61
2023-03-27T00:31:57.922Z,1.57
2023-03-27T00:32:57.962Z,1.56
2023-03-27T00:33:57.966Z,1.55
2023-03-27T00:34:58.030Z,1.52
2023-03-27T00:35:58.065Z,1.49
2023-03-27T00:36:58.077Z,1.51
2023-03-27T00:37:58.122Z,1.49
2023-03-27T00:38:58.155Z,1.45
2023-03-27T00:39:58.217Z,1.46
2023-03-27T00:40:58.404Z,1.44
2023-03-27T00:41:58.267Z,1.45
2023-03-27T00:42:58.309Z,1.43
2023-03-27T00:43:58.328Z,1.47
2023-03-27T00:44:58.311Z,1.43
2023-03-27T00:45:58.408Z,1.43
2023-03-27T00:46:58.512Z,1.45
2023-03-27T00:47:58.541Z,1.46
2023-03-27T00:48:58.460Z,1.47
2023-03-27T00:49:58.501Z,1.45
2023-03-27T00:50:58.649Z,1.44
2023-03-27T00:51:58.603Z,1.42
2023-03-27T00:52:58.622Z,1.43
2023-03-27T00:53:58.702Z,1.42
2023-03-27T00:54:58.659Z,1.44
2023-03-27T00:55:58.734Z,1.44
2023-03-27T00:56:58.798Z,1.41
2023-03-27T00:57:58.822Z,1.44
2023-03-27T00:58:58.808Z,1.47
2023-03-27T00:59:58.864Z,1.46
2023-03-27T01:00:59.083Z,1.47
2023-03-27T01:01:59.025Z,1.52
2023-03-27T01:03:00.943Z,1.51
2023-03-27T01:03:58.947Z,1.50
2023-03-27T01:04:58.956Z,1.55
2023-03-27T01:05:58.984Z,1.50
2023-03-27T01:06:59.017Z,1.52
2023-03-27T01:08:00.341Z,1.54
2023-03-27T01:08:59.320Z,1.57
2023-03-27T01:09:59.352Z,1.57
2023-03-27T01:10:59.364Z,1.55
2023-03-27T01:11:59.406Z,1.57
2023-03-27T01:12:59.458Z,1.57
2023-03-27T01:13:59.480Z,1.58
2023-03-27T01:14:59.536Z,1.63
2023-03-27T01:15:59.549Z,1.64
2023-03-27T01:16:59.565Z,1.63
2023-03-27T01:17:59.622Z,1.64
2023-03-27T01:18:59.660Z,1.62
2023-03-27T01:19:59.676Z,1.61
2023-03-27T01:20:59.773Z,1.59
2023-03-27T01:21:59.783Z,1.63
2023-03-27T01:22:59.810Z,1.61
2023-03-27T01:24:00.916Z,1.58
2023-03-27T01:24:59.868Z,1.58
2023-03-27T01:25:59.912Z,1.54
2023-03-27T01:26:59.911Z,1.55
2023-03-27T01:27:59.948Z,1.56
2023-03-27T01:28:59.984Z,1.50
2023-03-27T01:30:00.035Z,1.59
2023-03-27T01:31:00.150Z,1.60
2023-03-27T01:32:00.133Z,1.69
2023-03-27T01:33:00.152Z,1.72
2023-03-27T01:34:00.136Z,1.76
2023-03-27T01:35:01.561Z,1.84
2023-03-27T01:36:00.195Z,1.90
2023-03-27T01:37:00.177Z,1.99
2023-03-27T01:38:00.215Z,2.09
2023-03-27T01:39:00.214Z,2.24
2023-03-27T01:40:00.238Z,2.36
2023-03-27T01:41:00.211Z,2.54
2023-03-27T01:42:00.246Z,2.64
2023-03-27T01:43:00.247Z,2.72
2023-03-27T01:46:00.241Z,2.74
2023-03-27T01:48:00.372Z,2.68
2023-03-27T01:49:00.256Z,2.56
2023-03-27T01:50:00.289Z,2.45
2023-03-27T01:51:00.297Z,2.57
2023-03-27T02:01:00.342Z,3.00
2023-03-27T02:03:00.347Z,2.91
2023-03-27T02:04:00.290Z,2.91
2023-03-27T02:05:00.349Z,2.78
2023-03-27T02:06:00.325Z,2.94
2023-03-27T02:13:00.303Z,2.99
2023-03-27T02:21:00.316Z,2.84
2023-03-27T02:27:00.290Z,2.90
2023-03-27T02:28:00.295Z,2.92
2023-03-27T02:29:00.296Z,3.06
2023-03-27T02:33:00.382Z,2.92
2023-03-27T02:34:00.408Z,2.94
2023-03-27T02:35:00.409Z,2.91
2023-03-27T02:36:00.530Z,2.91
2023-03-27T02:37:00.524Z,2.99
2023-03-27T02:38:00.869Z,2.89
2023-03-27T02:39:00.911Z,2.89
2023-03-27T02:41:00.634Z,2.89
2023-03-27T02:42:00.636Z,2.82
2023-03-27T02:43:00.707Z,2.84
2023-03-27T02:44:00.744Z,2.85
2023-03-27T02:45:00.773Z,2.85
2023-03-27T02:46:00.862Z,2.88
2023-03-27T02:47:00.862Z,3.02
2023-03-27T02:48:00.936Z,2.88
2023-03-27T02:49:00.959Z,2.80
2023-03-27T02:50:00.983Z,2.88
2023-03-27T02:51:01.009Z,2.84
2023-03-27T02:52:01.059Z,2.78
2023-03-27T02:53:01.079Z,2.65
2023-03-27T02:54:01.122Z,2.72
2023-03-27T02:55:01.153Z,2.67
2023-03-27T02:56:01.175Z,2.65
2023-03-27T02:57:01.317Z,2.60
2023-03-27T03:00:01.342Z,2.63
2023-03-27T03:01:01.411Z,2.61
2023-03-27T03:02:01.476Z,2.57
2023-03-27T03:03:01.493Z,2.54
2023-03-27T03:04:01.498Z,2.59
2023-03-27T03:05:01.502Z,2.54
2023-03-27T03:06:01.551Z,2.56
2023-03-27T03:07:01.577Z,2.60
2023-03-27T03:08:01.639Z,2.64
2023-03-27T03:09:01.626Z,2.57
2023-03-27T03:10:01.716Z,2.41
2023-03-27T03:11:01.733Z,2.31
2023-03-27T03:12:01.732Z,2.40
2023-03-27T03:13:01.792Z,2.34
2023-03-27T03:14:01.816Z,2.28
2023-03-27T03:15:01.844Z,2.39
2023-03-27T03:16:01.886Z,2.37
2023-03-27T03:17:01.951Z,2.28
2023-03-27T03:18:01.983Z,2.32
2023-03-27T03:19:01.986Z,2.32
2023-03-27T03:20:02.018Z,2.27
2023-03-27T03:21:01.981Z,2.27
2023-03-27T03:22:02.034Z,2.30
2023-03-27T03:23:02.061Z,2.35
2023-03-27T03:24:02.098Z,2.36
2023-03-27T03:25:02.135Z,2.34
2023-03-27T03:26:02.159Z,2.38
2023-03-27T03:27:02.189Z,2.43
2023-03-27T03:28:02.201Z,2.42
2023-03-27T03:29:02.253Z,2.37
2023-03-27T03:30:02.291Z,2.35
2023-03-27T03:31:02.277Z,2.31
2023-03-27T03:32:02.310Z,2.23
2023-03-27T03:33:02.436Z,2.27
2023-03-27T03:34:02.359Z,2.23
2023-03-27T03:35:02.393Z,2.29
2023-03-27T03:36:02.432Z,2.17
2023-03-27T03:37:02.416Z,2.31
2023-03-27T03:38:02.450Z,2.35
2023-03-27T03:39:02.490Z,2.12
2023-03-27T03:40:02.534Z,2.23
2023-03-27T03:41:02.537Z,2.18
2023-03-27T03:42:02.593Z,2.25
2023-03-27T03:43:02.603Z,2.21
2023-03-27T03:44:02.660Z,2.26
2023-03-27T03:45:02.685Z,2.23
2023-03-27T03:46:02.720Z,2.23
2023-03-27T03:47:02.714Z,2.27
2023-03-27T03:48:02.828Z,2.20
2023-03-27T03:49:02.799Z,2.31
2023-03-27T04:01:03.100Z,1.97
2023-03-27T04:02:03.320Z,1.94
2023-03-27T04:03:03.184Z,1.83
2023-03-27T04:04:03.211Z,1.82
2023-03-27T04:05:08.732Z,1.84
2023-03-27T04:06:04.248Z,1.84
2023-03-27T04:07:03.250Z,1.85
2023-03-27T04:08:03.274Z,1.83
2023-03-27T04:11:03.250Z,1.74
2023-03-27T04:17:03.188Z,1.72
2023-03-27T04:19:03.159Z,1.68
2023-03-27T04:23:03.164Z,1.75
2023-03-27T04:27:03.197Z,1.73
2023-03-27T04:28:03.232Z,1.69
2023-03-27T04:30:03.279Z,1.63
2023-03-27T04:36:06.540Z,1.58
2023-03-27T04:37:03.324Z,1.58
2023-03-27T04:38:03.323Z,1.58
2023-03-27T04:39:03.333Z,1.52
2023-03-27T04:45:03.271Z,1.43
2023-03-27T04:46:03.288Z,1.42
2023-03-27T04:47:03.340Z,1.36
2023-03-27T04:48:03.327Z,1.34
2023-03-27T04:57:03.291Z,1.16
2023-03-27T04:59:03.204Z,1.19
2023-03-27T05:01:10.364Z,1.13
2023-03-27T05:03:03.256Z,1.14
2023-03-27T05:06:03.249Z,1.09
2023-03-27T05:07:03.195Z,1.02
2023-03-27T05:08:03.180Z,0.97
2023-03-27T05:09:03.165Z,0.98
2023-03-27T05:14:03.147Z,0.91
2023-03-27T05:15:03.144Z,1.00
2023-03-27T05:16:03.130Z,0.98
2023-03-27T05:17:03.144Z,0.89
2023-03-27T05:18:03.202Z,0.90
2023-03-27T05:19:03.150Z,0.99
2023-03-27T05:22:03.118Z,0.93
2023-03-27T05:25:03.136Z,1.07
2023-03-27T05:28:03.100Z,1.05
2023-03-27T05:35:03.052Z,2.13
2023-03-27T05:36:03.346Z,2.34
2023-03-27T05:37:03.043Z,2.30
2023-03-27T05:38:03.057Z,2.33
2023-03-27T05:43:03.152Z,2.35
2023-03-27T05:44:03.164Z,3.37
2023-03-27T05:45:03.240Z,3.24
2023-03-27T05:46:10.314Z,3.65
2023-03-27T05:47:03.305Z,3.68
2023-03-27T05:48:03.369Z,3.84
2023-03-27T05:52:03.321Z,5.16
2023-03-27T05:55:03.290Z,6.29
2023-03-27T05:58:03.268Z,7.73
2023-03-27T06:03:03.315Z,9.20
2023-03-27T06:04:03.249Z,9.01
2023-03-27T06:05:03.204Z,9.14
2023-03-27T06:07:03.194Z,9.34
2023-03-27T06:14:03.109Z,11.46
2023-03-27T06:15:03.119Z,12.62
2023-03-27T06:16:03.361Z,12.10
2023-03-27T06:17:03.044Z,12.80
2023-03-27T06:24:02.888Z,12.75
2023-03-27T06:25:02.895Z,12.44
2023-03-27T06:26:02.941Z,13.41
2023-03-27T06:27:02.952Z,12.55
2023-03-27T06:28:02.982Z,13.31
2023-03-27T06:29:08.564Z,12.90
2023-03-27T06:30:04.059Z,12.91
2023-03-27T06:35:02.919Z,13.90
2023-03-27T06:39:02.833Z,1.65
2023-03-27T06:41:02.876Z,0.35
2023-03-27T06:45:03.031Z,1.40
2023-03-27T06:47:03.153Z,3.51
2023-03-27T06:48:17.880Z,4.61
2023-03-27T06:52:03.229Z,4.82
2023-03-27T06:55:03.237Z,5.59
2023-03-27T06:56:03.218Z,6.05
2023-03-27T07:01:03.151Z,8.18
2023-03-27T07:04:03.148Z,10.12
2023-03-27T07:07:03.207Z,9.69
2023-03-27T07:08:11.373Z,9.95
2023-03-27T07:13:03.103Z,12.91
2023-03-27T07:14:03.128Z,12.53
2023-03-27T07:15:03.097Z,13.85
2023-03-27T07:19:03.051Z,14.85
2023-03-27T07:20:03.084Z,14.83
2023-03-27T07:21:03.112Z,14.79
2023-03-27T07:22:03.133Z,14.46
2023-03-27T07:23:03.155Z,14.29
2023-03-27T07:24:03.154Z,14.96
2023-03-27T07:25:03.212Z,14.92
2023-03-27T07:26:03.358Z,16.17
2023-03-27T07:27:03.322Z,15.18
2023-03-27T07:28:05.683Z,15.56
2023-03-27T07:30:03.249Z,15.74
2023-03-27T07:34:03.321Z,10.65
2023-03-27T07:36:03.160Z,1.11
2023-03-27T07:37:03.157Z,0.89
2023-03-27T07:38:03.164Z,0.69
2023-03-27T07:39:03.199Z,0.37
2023-03-27T07:41:03.191Z,0.40
2023-03-27T07:42:03.361Z,0.55
2023-03-27T07:44:03.210Z,1.32
2023-03-27T07:45:04.522Z,1.58
2023-03-27T07:46:03.369Z,2.19
2023-03-27T07:50:03.324Z,5.16
2023-03-27T07:55:03.281Z,6.34
2023-03-27T07:58:03.832Z,7.19
2023-03-27T08:01:03.251Z,8.10
2023-03-27T08:02:03.366Z,8.88
2023-03-27T08:03:03.343Z,9.34
2023-03-27T08:05:03.390Z,10.28
2023-03-27T08:07:03.180Z,11.06
2023-03-27T08:16:03.172Z,16.53
2023-03-27T08:17:15.107Z,16.65
2023-03-27T08:18:04.256Z,16.67
2023-03-27T08:19:03.158Z,16.76
2023-03-27T08:20:03.121Z,17.17
2023-03-27T08:21:03.889Z,17.77
2023-03-27T08:23:03.074Z,18.61
2023-03-27T08:27:03.504Z,20.90
2023-03-27T08:29:02.997Z,23.63
2023-03-27T08:33:03.020Z,13.90
2023-03-27T08:34:02.944Z,10.18
2023-03-27T08:35:02.997Z,7.22
2023-03-27T08:36:03.039Z,5.56
2023-03-27T08:37:03.379Z,4.95
2023-03-27T08:40:03.078Z,4.17
2023-03-27T08:41:03.141Z,3.52
2023-03-27T08:42:03.112Z,3.05
2023-03-27T08:43:03.193Z,1.79
2023-03-27T08:44:03.228Z,0.49
2023-03-27T08:45:03.425Z,0.34
2023-03-27T08:47:03.392Z,0.34
2023-03-27T08:48:03.466Z,0.42
2023-03-27T08:49:03.508Z,0.51
2023-03-27T08:50:03.576Z,0.48
2023-03-27T08:51:03.989Z,0.54
2023-03-27T08:54:03.839Z,1.02
2023-03-27T08:55:03.912Z,1.51
2023-03-27T08:56:04.008Z,2.43
2023-03-27T08:57:04.127Z,3.97
2023-03-27T08:58:04.457Z,6.16
2023-03-27T09:00:04.225Z,10.42
2023-03-27T09:01:04.312Z,6.88
2023-03-27T09:02:04.622Z,4.17
2023-03-27T09:03:04.476Z,4.56
2023-03-27T09:04:04.513Z,6.00
2023-03-27T09:05:04.536Z,8.40
2023-03-27T09:06:04.543Z,10.33
2023-03-27T09:07:04.540Z,13.29
2023-03-27T09:08:04.585Z,16.30
2023-03-27T09:09:04.602Z,18.09
2023-03-27T09:10:04.649Z,18.79
2023-03-27T09:11:04.689Z,19.09
2023-03-27T09:12:04.768Z,20.20
2023-03-27T09:13:04.798Z,20.68
2023-03-27T09:14:04.851Z,21.86
2023-03-27T09:15:04.953Z,22.30
2023-03-27T09:16:04.958Z,24.05
2023-03-27T09:17:04.978Z,29.72
2023-03-27T09:18:05.482Z,30.97
2023-03-27T09:25:05.225Z,28.97
2023-03-27T09:26:05.198Z,30.91
2023-03-27T09:27:07.499Z,31.19
2023-03-27T09:29:05.266Z,35.52
2023-03-27T09:30:06.262Z,37.01
2023-03-27T09:31:05.343Z,39.48
2023-03-27T09:32:05.436Z,43.19
2023-03-27T09:35:05.457Z,36.37
2023-03-27T09:36:05.625Z,34.71
2023-03-27T09:37:06.070Z,33.91
2023-03-27T09:44:05.765Z,35.10
2023-03-27T09:45:05.798Z,33.97
2023-03-27T09:46:05.772Z,19.63
2023-03-27T09:47:05.878Z,19.71
2023-03-27T09:48:05.932Z,25.53
2023-03-27T09:49:05.848Z,28.41
2023-03-27T09:50:05.817Z,36.44
2023-03-27T09:51:05.871Z,36.92
2023-03-27T09:52:05.979Z,39.07
2023-03-27T09:53:05.938Z,40.39
2023-03-27T09:54:05.980Z,42.04
2023-03-27T09:55:06.003Z,42.01
2023-03-27T10:00:06.121Z,50.59
2023-03-27T10:01:06.193Z,51.11
2023-03-27T10:02:08.028Z,56.29
2023-03-27T10:03:06.263Z,54.47
2023-03-27T10:04:06.254Z,53.81
2023-03-27T10:05:06.216Z,55.12
2023-03-27T10:06:06.325Z,58.12
2023-03-27T10:09:06.320Z,51.90
2023-03-27T10:10:06.349Z,53.77
2023-03-27T10:11:06.348Z,54.12
2023-03-27T10:12:06.421Z,55.16
2023-03-27T10:13:06.443Z,58.18
2023-03-27T10:14:06.433Z,60.81
2023-03-27T10:15:06.484Z,63.42
2023-03-27T10:16:06.533Z,62.33
2023-03-27T10:17:07.532Z,67.63
2023-03-27T10:20:06.736Z,78.70
2023-03-27T10:21:06.659Z,76.49
2023-03-27T10:22:06.696Z,78.79
2023-03-27T10:26:06.672Z,82.87
2023-03-27T10:30:06.605Z,90.42
2023-03-27T10:31:06.601Z,88.94
2023-03-27T10:40:06.716Z,22.14
2023-03-27T10:41:06.757Z,15.88
2023-03-27T10:44:06.796Z,14.09
2023-03-27T10:45:06.835Z,16.30
2023-03-27T10:46:06.886Z,17.84
2023-03-27T10:47:06.964Z,19.12
2023-03-27T10:48:06.931Z,18.94
2023-03-27T10:49:06.958Z,18.08
2023-03-27T10:50:06.994Z,20.93
2023-03-27T10:51:07.002Z,22.27
2023-03-27T10:52:07.041Z,22.17
2023-03-27T10:53:07.184Z,23.04
2023-03-27T10:54:07.186Z,23.05
2023-03-27T10:55:07.123Z,25.14
2023-03-27T10:56:07.254Z,26.00
2023-03-27T11:00:07.206Z,25.83
2023-03-27T11:01:07.230Z,21.47
2023-03-27T11:04:07.326Z,22.45
2023-03-27T11:08:07.303Z,23.19
2023-03-27T11:09:07.330Z,23.11
2023-03-27T11:10:07.334Z,23.77
2023-03-27T11:11:07.391Z,22.70
2023-03-27T11:12:07.428Z,23.08
2023-03-27T11:16:07.406Z,22.25
2023-03-27T11:17:07.642Z,20.27
2023-03-27T11:18:07.525Z,19.77
2023-03-27T11:19:07.489Z,19.39
2023-03-27T11:20:07.682Z,18.13
2023-03-27T11:21:07.569Z,18.56
2023-03-27T11:22:07.541Z,10.53
2023-03-27T11:23:07.957Z,9.19
2023-03-27T11:30:07.825Z,2.85
2023-03-27T11:31:12.945Z,2.71
2023-03-27T11:33:08.017Z,2.01
2023-03-27T11:36:07.999Z,3.17
2023-03-27T11:37:07.951Z,3.44
2023-03-27T11:38:07.957Z,3.68
2023-03-27T11:39:07.983Z,4.07
2023-03-27T11:40:07.999Z,4.49
2023-03-27T11:42:07.966Z,5.16
2023-03-27T11:43:08.008Z,5.27
2023-03-27T11:55:08.327Z,5.83
2023-03-27T11:56:08.369Z,6.63
2023-03-27T11:57:08.459Z,6.22
2023-03-27T11:58:08.478Z,6.72
2023-03-27T11:59:08.477Z,7.19
2023-03-27T12:00:08.535Z,7.20
2023-03-27T12:01:08.573Z,7.49
2023-03-27T12:02:08.638Z,6.58
2023-03-27T12:03:08.722Z,6.70
2023-03-27T12:04:08.665Z,6.30
2023-03-27T12:05:08.688Z,5.95
2023-03-27T12:10:08.860Z,7.49
2023-03-27T12:11:08.868Z,8.20
2023-03-27T12:12:08.917Z,8.96
2023-03-27T12:13:08.964Z,8.35
2023-03-27T12:14:17.707Z,8.60
2023-03-27T12:15:09.995Z,6.90
2023-03-27T12:16:09.018Z,7.04
2023-03-27T12:17:08.971Z,7.42
2023-03-27T12:18:09.045Z,8.28
2023-03-27T12:21:09.083Z,7.66
2023-03-27T12:22:21.116Z,7.93
2023-03-27T12:23:10.017Z,7.87
2023-03-27T12:24:08.998Z,7.55
2023-03-27T12:29:23.603Z,4.47
2023-03-27T12:32:09.098Z,4.38
2023-03-27T12:33:09.135Z,3.16
2023-03-27T12:36:09.149Z,2.63
2023-03-27T12:37:09.091Z,2.86
2023-03-27T12:38:09.222Z,3.17
2023-03-27T12:40:09.139Z,3.53
2023-03-27T12:41:09.151Z,3.90
2023-03-27T12:42:09.155Z,4.26
2023-03-27T12:43:09.190Z,4.57
2023-03-27T12:44:09.163Z,4.98
2023-03-27T12:45:09.177Z,5.51
2023-03-27T12:48:09.254Z,6.74
2023-03-27T12:49:09.277Z,7.09
2023-03-27T12:50:09.295Z,7.24
2023-03-27T12:51:09.347Z,7.62
2023-03-27T12:52:09.344Z,6.97
2023-03-27T12:53:09.381Z,6.52
2023-03-27T12:54:09.498Z,6.63
2023-03-27T12:55:09.464Z,6.98
2023-03-27T12:56:09.545Z,7.45
2023-03-27T12:57:09.689Z,7.95
2023-03-27T12:58:09.685Z,8.37
2023-03-27T12:59:09.675Z,8.72
2023-03-27T13:00:09.780Z,9.46
2023-03-27T13:01:09.837Z,8.94
2023-03-27T13:02:09.874Z,8.80
2023-03-27T13:03:10.016Z,9.48
2023-03-27T13:04:09.918Z,9.99
2023-03-27T13:05:24.198Z,9.98
2023-03-27T13:06:10.978Z,9.99
2023-03-27T13:09:09.977Z,10.92
2023-03-27T13:12:09.968Z,9.60
2023-03-27T13:13:09.983Z,3.76
2023-03-27T13:14:10.016Z,3.79
2023-03-27T13:16:10.961Z,2.20
2023-03-27T13:17:10.026Z,1.89
2023-03-27T13:18:10.089Z,1.57
2023-03-27T13:19:10.065Z,1.43
2023-03-27T13:20:10.160Z,1.33
2023-03-27T13:21:10.201Z,1.01
2023-03-27T13:22:10.226Z,1.04
2023-03-27T13:23:10.292Z,1.12
2023-03-27T13:24:10.540Z,1.22
2023-03-27T13:28:10.455Z,5.62
2023-03-27T13:29:10.522Z,7.19
2023-03-27T13:30:10.529Z,8.43
2023-03-27T13:31:10.570Z,9.23
2023-03-27T13:32:10.566Z,9.17
2023-03-27T13:33:10.686Z,10.66
2023-03-27T13:34:10.743Z,10.56
2023-03-27T13:35:10.734Z,10.68
2023-03-27T13:36:10.826Z,11.66
2023-03-27T13:37:10.842Z,13.06
2023-03-27T13:38:10.846Z,12.94
2023-03-27T13:39:10.902Z,14.22
2023-03-27T13:40:10.942Z,16.54
2023-03-27T13:41:10.921Z,16.31
2023-03-27T13:42:10.989Z,18.75
2023-03-27T13:43:10.977Z,18.79
2023-03-27T13:44:10.939Z,20.41
2023-03-27T13:45:10.946Z,21.36
2023-03-27T13:46:10.980Z,22.29
2023-03-27T13:47:11.025Z,25.61
2023-03-27T13:48:11.038Z,24.98
2023-03-27T13:49:11.077Z,27.17
2023-03-27T13:51:11.084Z,26.23
2023-03-27T13:52:11.140Z,26.28
2023-03-27T13:53:11.533Z,27.86
2023-03-27T13:59:11.377Z,28.66
2023-03-27T14:00:11.395Z,27.17
2023-03-27T14:01:11.435Z,28.32
2023-03-27T14:02:11.526Z,28.62
2023-03-27T14:03:11.582Z,29.44
2023-03-27T14:04:11.581Z,30.32
2023-03-27T14:05:11.565Z,29.99
2023-03-27T14:06:11.596Z,30.02
2023-03-27T14:07:11.649Z,30.32
2023-03-27T14:08:11.652Z,28.01
2023-03-27T14:09:11.724Z,28.49
2023-03-27T14:10:11.771Z,27.91
2023-03-27T14:11:11.777Z,28.44
2023-03-27T14:12:11.817Z,26.88
2023-03-27T14:13:11.864Z,27.78
2023-03-27T14:14:11.900Z,28.56
2023-03-27T14:15:11.920Z,27.44
2023-03-27T14:16:12.000Z,26.89
2023-03-27T14:17:12.006Z,20.88
2023-03-27T14:18:12.079Z,20.31
2023-03-27T14:19:12.099Z,20.10
2023-03-27T14:20:12.102Z,20.72
2023-03-27T14:21:12.188Z,21.19
2023-03-27T14:22:12.158Z,20.99
2023-03-27T14:23:12.230Z,22.14
2023-03-27T14:24:12.231Z,24.52
2023-03-27T14:25:12.279Z,20.45
2023-03-27T14:26:12.276Z,16.63
2023-03-27T14:27:12.379Z,11.24
2023-03-27T14:28:12.363Z,6.85
2023-03-27T14:29:12.374Z,5.62
2023-03-27T14:37:12.558Z,3.55
2023-03-27T14:38:12.582Z,3.58
2023-03-27T14:39:12.604Z,3.96
2023-03-27T14:40:12.678Z,4.78
2023-03-27T14:41:12.653Z,4.92
2023-03-27T14:42:12.697Z,5.87
2023-03-27T14:43:12.712Z,6.55
2023-03-27T14:44:12.952Z,6.66
2023-03-27T14:45:12.775Z,6.56
2023-03-27T14:46:12.912Z,6.36
2023-03-27T14:47:12.839Z,6.93
2023-03-27T14:48:12.961Z,7.19
2023-03-27T14:49:12.909Z,9.82
2023-03-27T14:50:12.916Z,9.61
2023-03-27T14:51:12.929Z,9.11
2023-03-27T14:52:12.941Z,8.20
2023-03-27T14:53:12.983Z,7.42
2023-03-27T14:54:12.986Z,7.02
2023-03-27T14:59:13.074Z,9.00
2023-03-27T15:00:13.078Z,9.34
2023-03-27T15:01:13.170Z,9.71
2023-03-27T15:04:13.298Z,9.82
2023-03-27T15:11:13.323Z,7.32
2023-03-27T15:12:13.340Z,7.54
2023-03-27T15:13:13.386Z,7.51
2023-03-27T15:14:13.362Z,7.38
2023-03-27T15:15:13.409Z,8.82
2023-03-27T15:16:13.463Z,8.36
2023-03-27T15:17:13.460Z,7.16
2023-03-27T15:20:13.496Z,6.06
2023-03-27T15:21:13.572Z,5.79
2023-03-27T15:22:13.581Z,5.62
2023-03-27T15:23:13.602Z,5.39
2023-03-27T15:24:13.710Z,5.37
2023-03-27T15:25:13.665Z,5.44
2023-03-27T15:26:13.683Z,6.00
2023-03-27T15:27:13.680Z,6.24
2023-03-27T15:28:13.725Z,6.15
2023-03-27T15:29:13.835Z,5.88
2023-03-27T15:30:13.808Z,5.56
2023-03-27T15:31:13.865Z,5.71
2023-03-27T15:32:13.837Z,5.92
2023-03-27T15:33:13.857Z,4.87
2023-03-27T15:34:13.903Z,4.98
2023-03-27T15:35:13.917Z,4.85
2023-03-27T15:36:14.004Z,5.03
2023-03-27T15:42:14.095Z,3.74
2023-03-27T15:43:14.163Z,3.87
2023-03-27T15:44:14.212Z,4.20
2023-03-27T15:45:14.182Z,4.08
2023-03-27T15:46:14.237Z,3.69
2023-03-27T15:47:14.248Z,4.64
2023-03-27T15:48:14.333Z,3.66
2023-03-27T15:49:14.353Z,2.53
2023-03-27T15:54:14.596Z,1.78
2023-03-27T15:55:14.585Z,2.42
2023-03-27T15:56:14.670Z,3.63
2023-03-27T15:57:14.835Z,5.30
2023-03-27T15:58:14.762Z,6.54
2023-03-27T15:59:14.789Z,6.34
2023-03-27T16:00:14.818Z,4.71
2023-03-27T16:01:18.285Z,3.68
2023-03-27T16:02:14.880Z,2.81
2023-03-27T16:03:14.999Z,2.77
2023-03-27T16:04:14.983Z,3.31
2023-03-27T16:05:14.860Z,3.76
2023-03-27T16:11:14.839Z,3.55
2023-03-27T16:12:14.799Z,3.15
2023-03-27T16:13:14.842Z,3.00
2023-03-27T16:19:14.829Z,2.92
2023-03-27T16:20:14.829Z,2.57
2023-03-27T16:21:14.815Z,2.79
2023-03-27T16:33:15.781Z,2.25
2023-03-27T16:34:22.899Z,2.28
2023-03-27T16:35:15.956Z,2.29
2023-03-27T16:36:14.912Z,2.23
2023-03-27T16:37:14.934Z,2.18
2023-03-27T16:52:15.244Z,1.81
2023-03-27T16:53:15.329Z,1.86
2023-03-27T16:54:15.365Z,1.85
2023-03-27T16:55:15.405Z,1.73
2023-03-27T16:56:15.433Z,1.67
2023-03-27T16:57:15.588Z,1.67
2023-03-27T16:58:15.550Z,1.63
2023-03-27T16:59:15.605Z,1.65
2023-03-27T17:00:15.640Z,1.69
2023-03-27T17:01:15.746Z,1.61
2023-03-27T17:02:15.730Z,1.57
2023-03-27T17:03:15.841Z,1.60
2023-03-27T17:04:15.913Z,1.60
2023-03-27T17:05:15.907Z,1.56
2023-03-27T17:06:15.938Z,1.54
2023-03-27T17:07:15.980Z,1.53
2023-03-27T17:08:16.069Z,1.54
2023-03-27T17:09:16.062Z,1.53
2023-03-27T17:10:16.111Z,1.50
2023-03-27T17:11:16.197Z,1.50
2023-03-27T17:12:16.205Z,1.50
2023-03-27T17:13:16.261Z,1.51
2023-03-27T17:14:16.344Z,1.48
2023-03-27T17:15:16.390Z,1.48
2023-03-27T17:16:16.447Z,1.40
2023-03-27T17:17:16.489Z,1.41
2023-03-27T17:18:16.580Z,1.38
2023-03-27T17:19:16.614Z,1.43
2023-03-27T17:20:16.625Z,1.47
2023-03-27T17:21:16.659Z,1.51
2023-03-27T17:22:16.718Z,1.55
2023-03-27T17:23:16.782Z,1.50
2023-03-27T17:24:16.808Z,1.54
2023-03-27T17:25:16.863Z,1.53
2023-03-27T17:32:17.162Z,1.37
2023-03-27T17:33:17.186Z,1.39
2023-03-27T17:34:17.261Z,1.40
2023-03-27T17:35:17.340Z,1.34
2023-03-27T17:36:21.653Z,1.35
2023-03-27T17:37:18.312Z,1.34
2023-03-27T17:38:17.323Z,1.34
2023-03-27T17:39:17.363Z,1.36
2023-03-27T17:41:17.358Z,1.37
2023-03-27T17:42:17.396Z,1.36
2023-03-27T17:43:17.400Z,1.34
2023-03-27T17:44:17.402Z,1.26
2023-03-27T17:45:17.402Z,1.24
2023-03-27T17:46:17.449Z,1.22
2023-03-27T17:47:17.425Z,1.20
2023-03-27T17:48:17.479Z,1.17
2023-03-27T17:54:17.639Z,1.17
2023-03-27T17:55:17.926Z,1.14
2023-03-27T17:56:17.740Z,1.11
2023-03-27T17:57:17.830Z,1.06
2023-03-27T17:58:17.821Z,1.09
2023-03-27T17:59:17.846Z,1.08
2023-03-27T18:00:17.934Z,1.08
2023-03-27T18:01:18.018Z,1.11
2023-03-27T18:02:17.970Z,1.11
2023-03-27T18:03:18.038Z,1.14
2023-03-27T18:04:18.061Z,1.12
2023-03-27T18:05:18.091Z,1.13
2023-03-27T18:06:18.123Z,1.14
2023-03-27T18:07:18.113Z,1.15
2023-03-27T18:08:18.141Z,1.13
2023-03-27T18:09:18.186Z,1.13
2023-03-27T18:10:18.207Z,1.13
2023-03-27T18:11:18.334Z,1.19
2023-03-27T18:12:18.235Z,1.14
2023-03-27T18:13:18.317Z,1.11
2023-03-27T18:14:18.380Z,1.13
2023-03-27T18:15:18.398Z,1.11
2023-03-27T18:16:18.429Z,1.17
2023-03-27T18:17:18.435Z,1.14
2023-03-27T18:18:18.580Z,1.17
2023-03-27T18:19:18.578Z,1.18
2023-03-27T18:20:19.136Z,1.20
2023-03-27T18:22:18.681Z,1.18
2023-03-27T18:23:18.717Z,1.15
2023-03-27T18:24:18.776Z,1.15
2023-03-27T18:25:18.836Z,1.15
2023-03-27T18:26:18.850Z,1.19
2023-03-27T18:27:18.888Z,1.19
2023-03-27T18:28:18.961Z,1.17
2023-03-27T18:29:19.009Z,1.16
2023-03-27T18:30:19.055Z,1.15
2023-03-27T18:31:19.126Z,1.17
2023-03-27T18:32:19.207Z,1.19
2023-03-27T18:33:19.209Z,1.18
2023-03-27T18:34:19.308Z,1.20
2023-03-27T18:35:19.306Z,1.19
2023-03-27T18:36:19.479Z,1.17
2023-03-27T18:37:19.444Z,1.17
2023-03-27T18:38:19.463Z,1.20
2023-03-27T18:39:19.555Z,1.17
2023-03-27T18:40:19.541Z,1.20
2023-03-27T18:41:19.599Z,1.23
2023-03-27T18:42:19.653Z,1.23
2023-03-27T18:43:19.668Z,1.19
2023-03-27T18:44:19.715Z,1.18
2023-03-27T18:45:19.783Z,1.20
2023-03-27T18:46:19.880Z,1.18
2023-03-27T18:47:19.898Z,1.16
2023-03-27T18:48:19.949Z,1.18
2023-03-27T18:49:24.835Z,1.17
2023-03-27T18:50:21.012Z,1.17
2023-03-27T18:51:20.039Z,1.17
2023-03-27T18:52:20.039Z,1.13
2023-03-27T18:53:20.029Z,1.15
2023-03-27T18:54:20.051Z,1.18
2023-03-27T18:59:20.127Z,1.25
2023-03-27T19:01:20.169Z,1.17
2023-03-27T19:09:25.557Z,1.00
2023-03-27T19:10:21.334Z,0.99
2023-03-27T19:12:20.699Z,0.92
2023-03-27T19:18:20.368Z,0.78
2023-03-27T19:19:20.383Z,0.76
2023-03-27T19:20:20.397Z,0.75
2023-03-27T19:24:20.477Z,0.71
2023-03-27T19:25:20.533Z,0.72
2023-03-27T19:26:20.584Z,0.71
2023-03-27T19:27:23.997Z,0.71
2023-03-27T19:29:20.633Z,0.69
2023-03-27T19:30:20.644Z,0.67
2023-03-27T19:31:20.713Z,0.62
2023-03-27T19:36:20.681Z,0.58
2023-03-27T19:37:20.694Z,0.54
2023-03-27T19:38:20.698Z,0.54
2023-03-27T19:39:20.712Z,0.52
2023-03-27T19:40:20.701Z,0.52
2023-03-27T19:41:20.725Z,0.51
2023-03-27T19:42:20.736Z,0.51
2023-03-27T19:43:20.738Z,0.54
2023-03-27T19:44:20.739Z,0.53
2023-03-27T19:45:20.746Z,0.53
2023-03-27T19:48:20.740Z,0.51
2023-03-27T19:49:20.749Z,0.51
2023-03-27T19:50:20.824Z,0.50
2023-03-27T19:54:20.828Z,0.52
2023-03-27T19:55:20.832Z,0.50
2023-03-27T19:56:20.850Z,0.50
2023-03-27T20:01:20.871Z,0.52
2023-03-27T20:02:20.891Z,0.50
2023-03-27T20:03:20.965Z,0.51
2023-03-27T20:04:20.904Z,0.52
2023-03-27T20:05:20.880Z,0.51
2023-03-27T20:06:20.887Z,0.51
2023-03-27T20:07:20.924Z,0.50
2023-03-27T20:08:20.905Z,0.51
2023-03-27T20:09:20.937Z,0.50
2023-03-27T20:10:20.919Z,0.52
2023-03-27T20:17:27.985Z,0.51
2023-03-27T20:18:21.977Z,0.51
2023-03-27T20:19:22.020Z,0.52
2023-03-27T20:20:20.990Z,0.52
2023-03-27T20:21:20.993Z,0.52
2023-03-27T20:27:21.026Z,0.54
2023-03-27T20:28:21.131Z,0.58
2023-03-27T20:29:21.059Z,0.57
2023-03-27T20:30:21.055Z,0.61